Time;durP1;ratioP1;P1;durP2;ratioP2;P2;SDS_P1;SDS_P2;PMS_P1;PMS_P2;Temp;Humidity;BMP_temperature;BMP_pressure;BME280_temperature;BME280_humidity;BME280_pressure;Samples;Min_cycle;Max_cycle;Signal;HPM_P1;HPM_P2
2021/05/28 06:01:21;;;;;;;5.05;3.00;;;20.40;99.90;;;;;;4305613;26;20218;-69
2021/05/28 06:03:48;;;;;;;7.78;3.70;;;19.80;99.90;;;;;;4994511;28;20333;-69
2021/05/28 06:06:14;;;;;;;4.80;2.95;;;20.10;99.90;;;;;;4994432;28;20317;-69
2021/05/28 06:08:40;;;;;;;4.55;3.13;;;20.10;99.90;;;;;;4994182;28;20306;-69
2021/05/28 06:11:07;;;;;;;5.70;3.15;;;19.10;99.90;;;;;;4994387;28;20294;-69
2021/05/28 06:13:33;;;;;;;7.30;3.53;;;18.90;99.90;;;;;;4994193;28;20292;-69
2021/05/28 06:15:59;;;;;;;5.63;3.28;;;19.40;99.90;;;;;;4994265;28;20709;-69
2021/05/28 06:18:27;;;;;;;5.88;2.78;;;18.70;99.90;;;;;;4993509;28;20289;-69
2021/05/28 06:20:53;;;;;;;6.72;3.15;;;18.60;99.90;;;;;;4994116;28;20300;-69
2021/05/28 06:23:19;;;;;;;5.78;3.00;;;18.70;99.90;;;;;;4994185;28;20242;-69
2021/05/28 06:25:47;;;;;;;5.10;3.40;;;18.80;99.90;;;;;;4994043;28;20301;-69
2021/05/28 06:28:14;;;;;;;4.63;2.63;;;19.10;99.90;;;;;;4993922;28;20226;-69
2021/05/28 06:30:41;;;;;;;5.55;3.10;;;18.70;99.90;;;;;;4994222;28;20310;-69
2021/05/28 06:33:08;;;;;;;4.90;2.47;;;17.90;99.90;;;;;;4994175;28;20297;-69
2021/05/28 06:35:37;;;;;;;5.03;2.92;;;17.00;99.90;;;;;;4994033;28;20280;-70
2021/05/28 06:38:04;;;;;;;7.00;3.17;;;17.20;99.90;;;;;;4993815;28;20682;-70
2021/05/28 06:40:30;;;;;;;6.23;2.90;;;17.50;99.90;;;;;;4993891;28;20252;-70
2021/05/28 06:42:57;;;;;;;6.57;2.75;;;16.90;99.90;;;;;;4993535;28;20236;-70
2021/05/28 06:45:23;;;;;;;7.53;2.92;;;17.70;99.90;;;;;;4993800;28;20366;-70
2021/05/28 06:47:50;;;;;;;5.25;3.13;;;17.70;99.90;;;;;;4993643;28;20317;-70
2021/05/28 06:50:17;;;;;;;6.25;2.83;;;18.00;99.90;;;;;;4993883;28;20234;-70
2021/05/28 06:52:46;;;;;;;4.78;3.15;;;17.90;99.90;;;;;;4993715;28;20292;-70
2021/05/28 06:55:12;;;;;;;4.82;2.90;;;18.00;99.90;;;;;;4993496;28;20210;-70
2021/05/28 06:57:39;;;;;;;5.97;3.15;;;17.70;99.90;;;;;;4993389;28;20317;-70
2021/05/28 07:00:07;;;;;;;5.70;3.22;;;17.10;99.90;;;;;;4993770;28;20226;-70
2021/05/28 07:02:34;;;;;;;3.95;2.65;;;16.90;99.90;;;;;;4993490;28;20210;-70
2021/05/28 07:05:00;;;;;;;7.63;3.20;;;17.60;99.90;;;;;;4993727;28;20206;-70
2021/05/28 07:07:26;;;;;;;6.07;3.20;;;18.20;99.90;;;;;;4993634;28;20222;-70
2021/05/28 07:09:53;;;;;;;6.78;3.20;;;19.00;99.90;;;;;;4993498;28;20212;-70
2021/05/28 07:12:20;;;;;;;5.22;2.67;;;20.10;99.90;;;;;;4993643;28;20210;-70
2021/05/28 07:14:46;;;;;;;3.22;2.53;;;20.60;99.90;;;;;;4993427;28;20240;-71
2021/05/28 07:17:12;;;;;;;4.97;2.53;;;19.80;99.90;;;;;;4993461;28;20222;-70
2021/05/28 07:19:39;;;;;;;6.05;2.75;;;19.50;99.90;;;;;;4993578;28;20691;-71
2021/05/28 07:22:05;;;;;;;6.05;2.42;;;19.30;99.90;;;;;;4979238;28;20211;-71
2021/05/28 07:24:31;;;;;;;4.82;3.00;;;19.40;99.90;;;;;;4991525;28;20263;-71
2021/05/28 07:26:59;;;;;;;4.95;3.08;;;19.80;99.90;;;;;;4992929;28;20248;-71
2021/05/28 07:29:25;;;;;;;6.53;2.92;;;20.20;99.90;;;;;;4993489;28;20209;-71
2021/05/28 07:31:51;;;;;;;5.55;3.30;;;20.50;99.90;;;;;;4981477;28;20254;-71
2021/05/28 07:34:18;;;;;;;3.92;2.80;;;20.80;99.90;;;;;;4993857;28;20225;-72
2021/05/28 07:36:44;;;;;;;5.65;2.83;;;20.60;99.90;;;;;;4995643;28;20222;-71
2021/05/28 07:39:10;;;;;;;3.42;2.38;;;20.70;99.80;;;;;;4995690;28;20202;-72
2021/05/28 07:41:37;;;;;;;6.53;2.80;;;20.20;99.90;;;;;;4983335;28;20215;-70
2021/05/28 07:44:06;;;;;;;8.60;3.08;;;21.10;99.90;;;;;;4994015;28;20234;-69
2021/05/28 07:46:39;;;;;;;6.10;3.10;;;20.90;99.40;;;;;;4995328;28;20234;-72
2021/05/28 07:49:05;;;;;;;5.97;2.85;;;21.10;99.00;;;;;;4995727;28;20214;-69
2021/05/28 07:51:32;;;;;;;6.60;2.47;;;21.40;98.80;;;;;;4983815;28;20237;-69
2021/05/28 07:53:58;;;;;;;5.07;2.45;;;21.30;98.20;;;;;;4992833;28;20611;-70
2021/05/28 07:56:24;;;;;;;6.05;2.63;;;20.90;98.70;;;;;;4995691;28;20230;-70
2021/05/28 07:58:50;;;;;;;3.45;2.60;;;21.70;98.00;;;;;;4996668;28;20615;-69
2021/05/28 08:01:18;;;;;;;4.85;2.40;;;21.60;98.10;;;;;;4986625;28;20215;-69
2021/05/28 08:03:44;;;;;;;5.13;2.83;;;21.20;98.50;;;;;;4976781;28;20705;-71
2021/05/28 08:06:10;;;;;;;3.03;2.05;;;22.20;98.40;;;;;;4976830;28;20227;-70
2021/05/28 08:08:36;;;;;;;3.05;1.98;;;22.00;96.90;;;;;;4973443;28;20285;-75
2021/05/28 08:11:03;;;;;;;4.05;2.00;;;22.70;96.50;;;;;;4975203;28;20294;-70
2021/05/28 08:13:29;;;;;;;2.05;1.85;;;22.00;96.30;;;;;;4977341;28;20294;-72
2021/05/28 08:15:56;;;;;;;3.58;1.60;;;21.90;97.10;;;;;;4983862;28;20202;-74
2021/05/28 08:18:24;;;;;;;2.58;2.20;;;22.60;95.30;;;;;;4994580;28;20657;-72
2021/05/28 08:20:50;;;;;;;4.30;2.30;;;22.70;95.50;;;;;;4976720;28;20211;-72
2021/05/28 08:23:16;;;;;;;2.67;1.58;;;23.30;95.40;;;;;;4976692;28;20403;-71
2021/05/28 08:25:43;;;;;;;3.42;1.90;;;23.00;93.70;;;;;;4976674;28;20218;-71
2021/05/28 08:28:09;;;;;;;3.33;1.67;;;22.70;94.70;;;;;;4976783;28;20230;-71
2021/05/28 08:30:35;;;;;;;2.90;1.50;;;23.50;94.30;;;;;;4976256;28;20715;-70
2021/05/28 08:33:02;;;;;;;4.72;1.40;;;23.20;94.60;;;;;;4976375;28;20572;-71
2021/05/28 08:35:29;;;;;;;2.20;1.63;;;22.60;94.70;;;;;;4976326;28;20239;-71
2021/05/28 08:37:55;;;;;;;5.60;1.83;;;22.10;95.60;;;;;;4976622;28;20228;-69
2021/05/28 08:40:23;;;;;;;2.72;1.40;;;23.10;95.10;;;;;;4976785;28;20211;-71
2021/05/28 08:42:51;;;;;;;3.88;1.77;;;23.00;93.60;;;;;;4975517;28;20218;-71
2021/05/28 08:45:18;;;;;;;4.85;1.63;;;23.40;93.40;;;;;;4972112;28;20732;-71
2021/05/28 08:47:44;;;;;;;3.03;1.48;;;23.50;92.80;;;;;;4976649;28;20623;-70
2021/05/28 08:50:11;;;;;;;3.40;1.85;;;23.60;92.90;;;;;;4974888;28;20570;-70
2021/05/28 08:52:39;;;;;;;3.42;1.60;;;23.10;93.60;;;;;;4975133;28;20214;-74
2021/05/28 08:55:06;;;;;;;4.28;2.60;;;22.50;94.00;;;;;;4991921;28;20318;-76
2021/05/28 08:57:33;;;;;;;3.30;1.80;;;22.00;94.80;;;;;;4994647;28;20238;-79
2021/05/28 08:59:59;;;;;;;2.83;1.70;;;22.40;94.40;;;;;;4993716;28;20218;-73
2021/05/28 09:02:34;;;;;;;4.05;1.70;;;22.80;93.80;;;;;;4975555;28;20203;-69
2021/05/28 09:05:05;;;;;;;5.40;2.13;;;22.70;93.70;;;;;;4991226;28;20349;-69
2021/05/28 09:07:32;;;;;;;3.83;1.50;;;22.10;93.60;;;;;;4992675;28;20588;-69
2021/05/28 09:09:59;;;;;;;4.32;1.50;;;22.50;93.50;;;;;;4993912;28;20202;-71
2021/05/28 09:12:26;;;;;;;2.08;1.42;;;21.90;93.80;;;;;;4975496;28;20218;-71
2021/05/28 09:14:52;;;;;;;3.95;1.70;;;21.80;93.60;;;;;;4989219;28;20223;-71
2021/05/28 09:17:19;;;;;;;4.00;1.45;;;22.20;93.80;;;;;;4993932;28;20231;-78
2021/05/28 09:19:52;;;;;;;1.88;1.10;;;22.80;93.00;;;;;;4994239;28;20213;-72
2021/05/28 09:22:19;;;;;;;3.20;1.50;;;22.40;92.60;;;;;;4975790;28;20246;-71
2021/05/28 09:24:46;;;;;;;1.88;1.20;;;21.50;94.10;;;;;;4988837;28;20661;-69
2021/05/28 09:27:23;;;;;;;1.98;1.00;;;21.30;93.70;;;;;;4994203;28;20234;-70
2021/05/28 09:30:04;;;;;;;2.90;1.23;;;20.60;94.50;;;;;;4993859;28;20217;-71
2021/05/28 09:32:31;;;;;;;1.70;1.10;;;20.80;94.90;;;;;;4975426;28;20296;-70
2021/05/28 09:34:58;;;;;;;1.58;1.15;;;21.10;94.40;;;;;;4998995;28;20210;-71
2021/05/28 09:37:42;;;;;;;3.03;1.25;;;21.30;94.30;;;;;;4993044;28;20314;-72
2021/05/28 09:40:14;;;;;;;2.47;1.10;;;22.40;92.90;;;;;;4992725;28;20207;-67
2021/05/28 09:42:52;;;;;;;3.42;1.20;;;21.90;93.00;;;;;;4972675;28;20207;-71
2021/05/28 09:45:29;;;;;;;2.10;1.30;;;20.80;93.50;;;;;;4992309;28;20289;-72
2021/05/28 09:47:56;;;;;;;2.22;1.20;;;20.50;95.10;;;;;;4993889;28;20722;-73
2021/05/28 09:50:22;;;;;;;2.50;1.40;;;20.80;94.40;;;;;;4975820;28;20203;-73
2021/05/28 09:52:49;;;;;;;3.10;1.30;;;20.40;95.00;;;;;;4973801;28;20286;-73
2021/05/28 09:55:16;;;;;;;4.88;1.30;;;20.10;95.20;;;;;;4973920;28;20602;-72
2021/05/28 09:57:45;;;;;;;2.08;1.20;;;19.90;95.70;;;;;;4973058;28;20267;-75
2021/05/28 10:00:23;;;;;;;2.15;1.05;;;20.30;95.30;;;;;;4987511;28;20221;-73
2021/05/28 10:02:49;;;;;;;2.65;1.00;;;19.80;94.70;;;;;;4974856;28;20261;-73
2021/05/28 10:05:22;;;;;;;3.40;1.23;;;19.10;95.80;;;;;;4975008;28;20203;-72
2021/05/28 10:07:49;;;;;;;1.55;1.10;;;18.70;95.60;;;;;;4974529;28;20234;-72
2021/05/28 10:10:16;;;;;;;3.65;1.27;;;18.60;96.40;;;;;;4974835;28;20265;-70
2021/05/28 10:12:43;;;;;;;2.00;1.00;;;18.40;97.30;;;;;;4975065;28;20215;-72
2021/05/28 10:15:12;;;;;;;1.43;1.07;;;18.30;97.20;;;;;;4974746;28;20242;-70
2021/05/28 10:17:39;;;;;;;3.47;1.17;;;18.00;97.40;;;;;;4994023;28;20231;-73
2021/05/28 10:20:07;;;;;;;2.93;1.17;;;18.30;96.80;;;;;;4994249;28;20549;-76
2021/05/28 10:22:34;;;;;;;4.67;1.43;;;18.20;97.20;;;;;;4974479;28;20203;-72
2021/05/28 10:25:01;;;;;;;2.35;1.10;;;18.10;97.90;;;;;;4974311;28;20235;-72
2021/05/28 10:27:27;;;;;;;2.43;1.10;;;18.00;98.00;;;;;;4974416;28;20278;-72
2021/05/28 10:29:55;;;;;;;2.00;1.23;;;18.40;98.70;;;;;;4974478;28;20207;-72
2021/05/28 10:32:22;;;;;;;1.98;1.20;;;18.50;98.50;;;;;;4974515;28;20203;-72
2021/05/28 10:35:09;;;;;;;2.88;1.10;;;18.60;96.60;;;;;;4974098;28;20204;-72
2021/05/28 10:37:36;;;;;;;3.20;0.90;;;18.70;95.90;;;;;;4974153;28;20313;-72
2021/05/28 10:40:24;;;;;;;2.53;1.08;;;19.00;96.00;;;;;;4974490;28;20211;-72
2021/05/28 10:43:04;;;;;;;2.20;0.93;;;19.30;96.20;;;;;;4974378;28;20203;-72
2021/05/28 10:45:56;;;;;;;1.63;1.00;;;19.40;96.40;;;;;;4974059;28;20214;-72
2021/05/28 10:48:55;;;;;;;3.08;1.20;;;19.20;96.80;;;;;;4974312;28;20207;-72
2021/05/28 10:51:59;;;;;;;1.92;1.20;;;19.30;97.30;;;;;;4974407;28;20558;-73
2021/05/28 10:54:26;;;;;;;2.40;1.08;;;19.30;96.80;;;;;;4973763;28;20221;-72
2021/05/28 10:56:53;;;;;;;1.60;1.25;;;19.80;96.20;;;;;;4973647;28;20223;-72
2021/05/28 10:59:21;;;;;;;2.30;1.23;;;19.40;95.60;;;;;;4976785;28;20221;-72
2021/05/28 11:01:51;;;;;;;3.30;1.42;;;18.90;96.50;;;;;;4973913;28;20690;-73
2021/05/28 11:04:22;;;;;;;3.67;1.27;;;18.80;97.10;;;;;;4973502;28;20242;-72
2021/05/28 11:07:17;;;;;;;2.25;1.15;;;18.80;96.60;;;;;;4974026;28;20227;-72
2021/05/28 11:09:46;;;;;;;2.95;1.70;;;19.20;97.20;;;;;;4973534;28;20621;-72
2021/05/28 11:12:13;;;;;;;2.90;1.50;;;19.10;96.50;;;;;;4973293;28;20217;-72
2021/05/28 11:14:58;;;;;;;2.92;1.63;;;18.90;96.70;;;;;;4973532;28;20211;-72
2021/05/28 11:17:25;;;;;;;3.88;1.48;;;18.90;97.30;;;;;;4992282;28;20222;-72
2021/05/28 11:19:56;;;;;;;3.65;1.50;;;19.50;97.00;;;;;;4992863;28;20217;-72
2021/05/28 11:22:42;;;;;;;2.50;1.40;;;19.80;95.10;;;;;;4974764;28;20238;-73
2021/05/28 11:25:16;;;;;;;2.75;1.38;;;19.00;94.90;;;;;;4973740;28;20238;-72
2021/05/28 11:27:55;;;;;;;1.75;1.30;;;19.10;95.60;;;;;;4973750;28;20230;-72
2021/05/28 11:30:37;;;;;;;3.08;1.52;;;19.50;96.30;;;;;;4973295;28;20231;-72
2021/05/28 11:33:04;;;;;;;2.33;1.40;;;19.90;95.80;;;;;;4972076;28;20203;-71
2021/05/28 11:35:37;;;;;;;3.58;1.88;;;19.50;95.50;;;;;;4973670;28;20215;-73
2021/05/28 11:38:05;;;;;;;3.63;1.90;;;19.00;96.30;;;;;;4973691;28;20235;-72
2021/05/28 11:40:38;;;;;;;1.80;1.50;;;19.20;96.30;;;;;;4973739;28;20547;-72
2021/05/28 11:43:06;;;;;;;4.50;1.80;;;19.40;95.60;;;;;;4973654;28;20214;-72
2021/05/28 11:45:34;;;;;;;2.28;1.65;;;19.30;95.80;;;;;;4973558;28;20218;-73
2021/05/28 11:48:01;;;;;;;2.47;1.80;;;19.40;96.00;;;;;;4973576;28;20223;-72
2021/05/28 11:50:39;;;;;;;2.50;1.70;;;19.10;96.20;;;;;;4973830;28;20203;-72
2021/05/28 11:53:08;;;;;;;2.92;1.80;;;19.00;97.10;;;;;;4973502;28;20307;-72
2021/05/28 11:55:44;;;;;;;5.72;2.08;;;19.30;97.30;;;;;;4973386;28;20218;-72
2021/05/28 11:58:12;;;;;;;2.40;1.70;;;19.20;97.50;;;;;;4972178;28;20230;-72
2021/05/28 12:00:39;;;;;;;2.85;2.05;;;19.30;96.70;;;;;;4984648;28;20272;-71
2021/05/28 12:03:05;;;;;;;3.33;2.15;;;19.40;97.50;;;;;;4992744;28;20665;-72
2021/05/28 12:05:35;;;;;;;3.30;2.03;;;19.40;97.10;;;;;;4992738;28;20198;-72
2021/05/28 12:08:16;;;;;;;2.85;1.83;;;19.40;98.00;;;;;;4988778;28;20760;-72
2021/05/28 12:10:44;;;;;;;4.10;1.90;;;19.60;95.30;;;;;;4973528;28;20207;-72
2021/05/28 12:13:12;;;;;;;2.92;2.10;;;19.70;95.70;;;;;;4973233;28;20218;-72
2021/05/28 12:15:39;;;;;;;4.68;2.22;;;19.70;95.70;;;;;;4973324;28;20203;-71
2021/05/28 12:18:15;;;;;;;2.22;1.83;;;19.80;95.90;;;;;;4989459;28;20227;-71
2021/05/28 12:20:43;;;;;;;3.42;2.10;;;20.10;95.40;;;;;;4977380;28;20741;-72
2021/05/28 12:23:16;;;;;;;6.45;2.35;;;20.50;97.00;;;;;;4977015;28;20225;-73
2021/05/28 12:25:46;;;;;;;2.88;1.70;;;20.20;94.70;;;;;;4977173;28;20214;-70
2021/05/28 12:28:24;;;;;;;6.90;2.53;;;20.00;96.80;;;;;;4981212;28;20276;-72
2021/05/28 12:30:56;;;;;;;4.10;2.50;;;20.30;96.60;;;;;;4996635;28;20202;-72
2021/05/28 12:33:26;;;;;;;3.67;2.58;;;20.40;96.10;;;;;;4996210;28;20289;-72
2021/05/28 12:35:55;;;;;;;3.85;2.47;;;20.40;95.90;;;;;;4996081;28;20317;-72
2021/05/28 12:38:39;;;;;;;4.78;2.88;;;20.10;96.30;;;;;;4990482;28;20204;-71
2021/05/28 12:41:06;;;;;;;5.80;3.30;;;19.90;96.10;;;;;;4979344;28;20211;-72
2021/05/28 12:43:33;;;;;;;6.22;2.90;;;19.50;96.30;;;;;;4976484;28;20238;-72
2021/05/28 12:46:00;;;;;;;4.32;2.70;;;19.40;96.90;;;;;;4976214;28;20207;-71
2021/05/28 12:48:44;;;;;;;4.53;2.60;;;19.60;97.20;;;;;;4976295;28;20203;-72
2021/05/28 12:51:12;;;;;;;5.07;3.28;;;19.60;97.20;;;;;;4976060;28;20297;-72
2021/05/28 12:53:40;;;;;;;5.50;2.80;;;19.60;97.30;;;;;;4986895;28;20241;-71
2021/05/28 12:56:07;;;;;;;8.43;3.50;;;19.60;97.70;;;;;;4985013;28;20654;-72
2021/05/28 12:58:34;;;;;;;5.53;3.25;;;19.80;97.30;;;;;;4975984;28;20239;-72
2021/05/28 13:01:03;;;;;;;4.90;2.95;;;20.20;96.40;;;;;;4975917;28;20221;-71
2021/05/28 13:03:35;;;;;;;4.40;2.78;;;20.20;95.80;;;;;;4975789;28;20237;-72
2021/05/28 13:06:23;;;;;;;4.68;2.67;;;19.80;96.30;;;;;;4975506;28;20207;-71
2021/05/28 13:08:51;;;;;;;5.05;3.03;;;19.90;96.70;;;;;;4975771;28;20215;-71
2021/05/28 13:11:17;;;;;;;6.57;2.38;;;20.20;96.90;;;;;;4976128;28;20215;-72
2021/05/28 13:13:47;;;;;;;5.53;3.10;;;19.90;96.30;;;;;;4975901;28;20215;-72
2021/05/28 13:16:13;;;;;;;4.50;2.70;;;19.50;96.30;;;;;;4975858;28;20278;-72
2021/05/28 13:18:41;;;;;;;5.30;2.70;;;19.80;96.30;;;;;;4975722;28;20257;-71
2021/05/28 13:21:24;;;;;;;8.82;2.95;;;19.90;96.20;;;;;;4975865;28;20206;-72
2021/05/28 13:23:52;;;;;;;4.70;2.67;;;20.00;96.40;;;;;;4975364;28;20235;-72
2021/05/28 13:26:18;;;;;;;4.55;2.60;;;20.10;95.60;;;;;;4975457;28;20227;-71
2021/05/28 13:28:46;;;;;;;5.85;2.47;;;19.70;96.10;;;;;;4976334;28;20221;-72
2021/05/28 13:31:14;;;;;;;4.90;2.40;;;19.80;96.70;;;;;;4990599;28;20203;-72
2021/05/28 13:33:42;;;;;;;6.35;2.75;;;20.00;96.30;;;;;;4994533;28;20229;-74
2021/05/28 13:36:12;;;;;;;6.15;2.63;;;19.90;95.90;;;;;;4994486;28;20206;-75
2021/05/28 13:38:41;;;;;;;3.80;2.55;;;20.00;95.90;;;;;;4983055;28;20744;-74
2021/05/28 13:41:11;;;;;;;3.05;2.38;;;19.90;96.30;;;;;;4975016;28;20207;-74
2021/05/28 13:43:38;;;;;;;5.07;2.58;;;20.00;95.70;;;;;;4974758;28;20255;-74
2021/05/28 13:46:05;;;;;;;5.75;2.40;;;20.30;96.30;;;;;;4979272;28;20717;-74
2021/05/28 13:48:33;;;;;;;5.80;2.40;;;20.70;95.90;;;;;;4983913;28;20302;-74
2021/05/28 13:50:59;;;;;;;4.15;2.28;;;20.90;95.60;;;;;;4975193;28;20207;-73
2021/05/28 13:53:26;;;;;;;4.47;2.30;;;20.60;95.70;;;;;;4974893;28;20211;-73
2021/05/28 13:55:53;;;;;;;4.82;2.38;;;20.20;95.70;;;;;;4974745;28;20676;-76
2021/05/28 13:58:23;;;;;;;4.85;2.50;;;20.10;96.00;;;;;;4983323;28;20214;-74
2021/05/28 14:00:49;;;;;;;3.20;2.20;;;20.20;95.70;;;;;;4994090;28;20214;-74
2021/05/28 14:03:16;;;;;;;4.13;2.17;;;19.90;95.20;;;;;;4994038;28;20211;-73
2021/05/28 14:05:43;;;;;;;6.75;2.70;;;19.80;95.70;;;;;;4993510;28;20210;-74
2021/05/28 14:08:11;;;;;;;3.08;2.00;;;19.90;94.90;;;;;;4986311;28;20227;-74
2021/05/28 14:10:38;;;;;;;6.35;2.45;;;19.90;95.40;;;;;;4974386;28;20239;-73
2021/05/28 14:13:04;;;;;;;4.80;2.72;;;19.80;95.40;;;;;;4974732;28;20215;-74
2021/05/28 14:15:32;;;;;;;4.38;2.40;;;19.80;95.40;;;;;;4974803;28;20214;-74
2021/05/28 14:17:59;;;;;;;4.72;2.30;;;20.00;95.50;;;;;;4974150;28;20229;-74
2021/05/28 14:20:25;;;;;;;4.47;2.55;;;20.10;95.10;;;;;;4974658;28;20203;-75
2021/05/28 14:22:52;;;;;;;2.80;1.70;;;20.00;95.20;;;;;;4981262;28;20287;-74
2021/05/28 14:25:20;;;;;;;2.75;1.67;;;20.00;95.50;;;;;;4981565;28;20241;-74
2021/05/28 14:27:47;;;;;;;2.25;1.58;;;20.10;93.80;;;;;;4974716;28;20305;-74
2021/05/28 14:30:14;;;;;;;2.83;1.50;;;19.90;94.20;;;;;;4973747;28;20218;-73
2021/05/28 14:32:42;;;;;;;2.58;1.60;;;19.80;93.70;;;;;;4974000;28;20574;-73
2021/05/28 14:35:10;;;;;;;1.42;1.10;;;19.80;94.20;;;;;;4974192;28;20294;-72
2021/05/28 14:37:36;;;;;;;2.08;1.13;;;19.70;93.00;;;;;;4973221;28;20223;-73
2021/05/28 14:40:04;;;;;;;2.00;1.30;;;19.70;93.30;;;;;;4973329;28;20215;-76
2021/05/28 14:42:31;;;;;;;2.03;1.05;;;19.40;92.50;;;;;;4974528;28;20247;-74
2021/05/28 14:44:59;;;;;;;2.70;1.60;;;19.40;92.90;;;;;;4973998;28;20709;-73
2021/05/28 14:47:25;;;;;;;1.50;1.10;;;19.80;92.40;;;;;;4973919;28;20238;-74
2021/05/28 14:49:52;;;;;;;2.40;1.48;;;19.70;92.20;;;;;;4975362;28;20207;-72
2021/05/28 14:52:19;;;;;;;3.55;1.20;;;19.80;92.80;;;;;;4974584;28;20296;-71
2021/05/28 14:54:45;;;;;;;1.70;1.27;;;19.80;93.10;;;;;;4974558;28;20209;-71
2021/05/28 14:57:12;;;;;;;1.90;1.40;;;19.70;93.10;;;;;;4975298;28;20238;-68
2021/05/28 14:59:39;;;;;;;1.88;1.50;;;19.60;92.70;;;;;;4982164;28;20704;-76
2021/05/28 15:02:06;;;;;;;1.87;1.30;;;19.60;92.20;;;;;;4993059;28;20206;-75
2021/05/28 15:04:33;;;;;;;2.40;1.33;;;19.60;91.30;;;;;;4993383;28;20234;-71
2021/05/28 15:07:01;;;;;;;2.40;1.30;;;19.50;91.60;;;;;;4991733;28;20697;-69
2021/05/28 15:09:28;;;;;;;2.40;0.98;;;19.50;91.20;;;;;;4986032;28;20210;-71
2021/05/28 15:11:54;;;;;;;2.73;1.20;;;19.30;90.70;;;;;;4992847;28;20558;-71
2021/05/28 15:14:20;;;;;;;3.20;1.63;;;19.30;90.90;;;;;;4992166;28;20203;-70
2021/05/28 15:16:47;;;;;;;1.40;1.30;;;19.30;91.80;;;;;;4992691;28;20276;-71
2021/05/28 15:19:13;;;;;;;3.87;1.70;;;19.40;92.40;;;;;;4985717;28;20202;-72
2021/05/28 15:21:40;;;;;;;3.40;1.80;;;19.40;91.50;;;;;;4991824;28;20216;-69
2021/05/28 15:24:08;;;;;;;2.47;1.50;;;19.50;91.90;;;;;;4991864;28;20712;-72
2021/05/28 15:26:34;;;;;;;2.37;1.60;;;19.70;92.00;;;;;;4992009;28;20233;-72
2021/05/28 15:29:01;;;;;;;4.15;1.63;;;20.00;92.20;;;;;;4983806;28;20549;-75
2021/05/28 15:31:28;;;;;;;2.72;2.00;;;19.80;92.70;;;;;;4992096;28;20301;-74
2021/05/28 15:33:54;;;;;;;3.27;2.00;;;19.80;92.80;;;;;;4992375;28;20212;-74
2021/05/28 15:36:20;;;;;;;4.88;2.35;;;19.80;92.90;;;;;;4991098;28;20671;-73
2021/05/28 15:38:47;;;;;;;3.13;2.03;;;19.70;93.10;;;;;;4985120;28;20210;-72
2021/05/28 15:41:14;;;;;;;2.65;2.20;;;19.60;93.70;;;;;;4992485;28;20210;-74
2021/05/28 15:43:41;;;;;;;2.72;2.08;;;19.50;93.20;;;;;;4991346;28;20214;-73
2021/05/28 15:46:07;;;;;;;3.27;2.20;;;19.50;93.50;;;;;;4974409;28;20207;-75
2021/05/28 15:48:34;;;;;;;3.47;1.65;;;19.60;92.90;;;;;;4975542;28;20245;-72
2021/05/28 15:51:00;;;;;;;2.42;1.58;;;19.70;93.10;;;;;;4992876;28;20206;-73
2021/05/28 15:53:27;;;;;;;3.83;1.85;;;19.80;92.90;;;;;;4995942;28;20210;-73
2021/05/28 15:55:53;;;;;;;3.83;2.72;;;19.70;92.70;;;;;;4995679;28;20210;-73
2021/05/28 15:58:21;;;;;;;5.70;2.60;;;19.60;93.10;;;;;;4987871;28;20294;-72
2021/05/28 16:00:48;;;;;;;3.70;2.65;;;19.50;93.10;;;;;;4995084;28;20214;-73
2021/05/28 16:03:16;;;;;;;3.58;2.20;;;19.40;93.00;;;;;;4995141;28;20608;-75
2021/05/28 16:05:45;;;;;;;3.47;2.47;;;19.40;93.30;;;;;;4994882;28;20356;-73
2021/05/28 16:08:15;;;;;;;3.63;2.50;;;19.70;93.70;;;;;;4988081;28;20654;-70
2021/05/28 16:10:42;;;;;;;3.97;2.30;;;20.00;92.90;;;;;;4995470;28;20310;-72
2021/05/28 16:13:09;;;;;;;3.50;2.35;;;19.90;92.90;;;;;;4983336;28;20203;-72
2021/05/28 16:15:36;;;;;;;3.15;2.33;;;20.00;92.30;;;;;;4975053;28;20203;-72
2021/05/28 16:18:03;;;;;;;2.50;1.98;;;19.90;92.40;;;;;;4974677;28;20231;-72
2021/05/28 16:20:30;;;;;;;2.70;2.17;;;19.70;93.00;;;;;;4974564;28;20211;-79
2021/05/28 16:22:57;;;;;;;4.03;2.78;;;19.70;92.70;;;;;;4979188;28;20200;-70
2021/05/28 16:25:26;;;;;;;2.78;2.33;;;19.90;93.10;;;;;;4983156;28;20232;-71
2021/05/28 16:27:52;;;;;;;3.20;2.53;;;20.10;92.80;;;;;;4984386;28;20244;-68
2021/05/28 16:30:20;;;;;;;4.80;2.63;;;20.20;92.70;;;;;;4982470;28;20213;-71
2021/05/28 16:32:47;;;;;;;2.53;2.33;;;20.20;92.90;;;;;;4983986;28;20199;-72
2021/05/28 16:35:15;;;;;;;2.63;2.33;;;20.30;93.40;;;;;;4977306;28;20203;-72
2021/05/28 16:37:41;;;;;;;4.03;2.50;;;20.40;93.20;;;;;;4974896;28;20215;-72
2021/05/28 16:40:09;;;;;;;4.35;3.58;;;20.20;93.20;;;;;;4987627;28;20642;-70
2021/05/28 16:42:35;;;;;;;3.53;2.72;;;20.00;93.40;;;;;;4974875;28;20306;-72
2021/05/28 16:45:01;;;;;;;4.82;3.10;;;20.00;93.40;;;;;;4974132;28;20581;-73
2021/05/28 16:47:28;;;;;;;4.88;2.80;;;19.90;93.50;;;;;;4974137;28;20665;-70
2021/05/28 16:49:55;;;;;;;4.90;2.80;;;19.90;93.90;;;;;;4988577;28;20301;-72
2021/05/28 16:52:21;;;;;;;4.50;2.90;;;20.00;93.40;;;;;;4993536;28;20206;-72
2021/05/28 16:54:48;;;;;;;4.15;2.60;;;19.80;94.00;;;;;;4993702;28;20213;-72
2021/05/28 16:57:14;;;;;;;4.43;2.67;;;19.70;94.30;;;;;;4993345;28;20234;-70
2021/05/28 16:59:42;;;;;;;3.25;2.53;;;19.50;93.60;;;;;;4987146;28;20309;-77
2021/05/28 17:02:10;;;;;;;4.67;2.20;;;19.40;93.40;;;;;;4992782;28;20261;-71
2021/05/28 17:04:37;;;;;;;3.55;2.20;;;19.50;93.40;;;;;;4993919;28;20239;-72
2021/05/28 17:07:05;;;;;;;4.15;2.38;;;19.60;93.50;;;;;;4994006;28;20218;-72
2021/05/28 17:09:31;;;;;;;3.13;2.25;;;19.60;93.40;;;;;;4986458;28;20669;-72
2021/05/28 17:11:58;;;;;;;2.87;2.00;;;19.40;93.20;;;;;;4993428;28;20211;-72
2021/05/28 17:14:24;;;;;;;2.60;1.75;;;19.40;93.20;;;;;;4993859;28;20221;-69
2021/05/28 17:16:50;;;;;;;5.95;2.45;;;19.30;93.50;;;;;;4993121;28;20325;-68
2021/05/28 17:19:17;;;;;;;2.63;1.80;;;19.30;93.50;;;;;;4986111;28;20569;-72
2021/05/28 17:21:44;;;;;;;2.63;2.00;;;19.50;93.70;;;;;;4993761;28;20208;-69
2021/05/28 17:24:11;;;;;;;2.50;1.90;;;19.50;93.20;;;;;;4993513;28;20240;-71
2021/05/28 17:26:38;;;;;;;1.77;1.45;;;19.40;92.90;;;;;;4992953;28;20309;-69
2021/05/28 17:29:04;;;;;;;1.70;1.42;;;19.40;93.20;;;;;;4978697;28;20207;-74
2021/05/28 17:31:31;;;;;;;2.42;1.42;;;19.50;93.20;;;;;;4975153;28;20215;-73
2021/05/28 17:33:57;;;;;;;2.65;1.58;;;19.30;92.80;;;;;;4975174;28;20208;-75
2021/05/28 17:36:24;;;;;;;2.33;1.40;;;19.30;92.70;;;;;;4974935;28;20223;-73
2021/05/28 17:38:50;;;;;;;2.13;1.48;;;19.40;92.80;;;;;;4975716;28;20217;-73
2021/05/28 17:41:19;;;;;;;3.78;1.52;;;19.40;93.00;;;;;;4975130;28;20203;-74
2021/05/28 17:43:45;;;;;;;3.28;1.77;;;19.40;93.10;;;;;;4975459;28;20211;-75
2021/05/28 17:46:12;;;;;;;4.13;1.98;;;19.60;93.20;;;;;;4975360;28;20222;-73
2021/05/28 17:48:38;;;;;;;4.50;1.83;;;19.60;92.80;;;;;;4975393;28;20204;-75
2021/05/28 17:51:06;;;;;;;2.42;2.03;;;19.40;93.40;;;;;;4974856;28;20218;-75
2021/05/28 17:53:33;;;;;;;5.10;2.10;;;19.40;93.80;;;;;;4975332;28;20207;-74
2021/05/28 17:55:59;;;;;;;5.63;2.13;;;19.30;93.80;;;;;;4974894;28;20225;-72
2021/05/28 17:58:27;;;;;;;2.70;1.85;;;19.20;94.40;;;;;;4974646;28;20671;-74
2021/05/28 18:00:54;;;;;;;2.05;1.65;;;19.30;94.20;;;;;;4975040;28;20247;-72
2021/05/28 18:03:20;;;;;;;3.53;2.03;;;19.30;94.60;;;;;;4974556;28;20211;-72
2021/05/28 18:05:49;;;;;;;3.50;2.08;;;19.10;95.10;;;;;;4974020;28;20319;-74
2021/05/28 18:08:16;;;;;;;4.50;1.90;;;19.10;94.70;;;;;;4973992;28;20586;-72
2021/05/28 18:10:42;;;;;;;3.37;1.87;;;19.00;94.10;;;;;;4974499;28;20233;-72
2021/05/28 18:13:09;;;;;;;3.50;2.30;;;19.10;94.40;;;;;;4974642;28;20294;-75
2021/05/28 18:15:37;;;;;;;6.03;2.13;;;19.00;94.90;;;;;;4972738;28;20214;-75
2021/05/28 18:18:04;;;;;;;6.32;2.45;;;19.00;95.10;;;;;;4977521;28;20224;-75
2021/05/28 18:20:30;;;;;;;4.40;2.23;;;19.10;95.30;;;;;;4979016;28;20218;-73
2021/05/28 18:22:57;;;;;;;3.17;2.17;;;19.00;95.10;;;;;;4976181;28;20227;-75
2021/05/28 18:25:25;;;;;;;3.42;1.83;;;19.00;95.10;;;;;;4975307;28;20238;-75
2021/05/28 18:27:51;;;;;;;4.87;2.13;;;18.90;95.30;;;;;;4976104;28;20230;-75
2021/05/28 18:30:20;;;;;;;3.28;2.03;;;18.90;95.50;;;;;;4976292;28;20730;-74
2021/05/28 18:32:48;;;;;;;3.37;1.90;;;18.80;95.60;;;;;;4976405;28;20208;-75
2021/05/28 18:35:17;;;;;;;5.33;2.03;;;18.60;95.70;;;;;;4974889;28;20213;-73
2021/05/28 18:37:43;;;;;;;3.67;1.80;;;18.40;96.30;;;;;;4974111;28;20230;-74
2021/05/28 18:40:12;;;;;;;2.73;1.70;;;18.30;97.10;;;;;;4976425;28;20211;-75
2021/05/28 18:42:38;;;;;;;3.80;1.87;;;18.30;96.70;;;;;;4981370;28;20198;-75
2021/05/28 18:45:07;;;;;;;6.27;2.30;;;18.30;96.80;;;;;;4977679;28;20650;-75
2021/05/28 18:47:33;;;;;;;4.60;2.43;;;18.40;96.80;;;;;;4975396;28;20223;-74
2021/05/28 18:50:01;;;;;;;3.67;1.80;;;18.30;96.70;;;;;;4977753;28;20305;-75
2021/05/28 18:52:27;;;;;;;4.50;2.00;;;18.30;97.00;;;;;;4973800;28;20207;-74
2021/05/28 18:54:54;;;;;;;3.00;1.70;;;18.20;97.20;;;;;;4977283;28;20234;-75